Time,TemperatureF,DewpointF,PressureIn,WindDirection,WindDirectionDegrees,WindSpeedMPH,WindSpeedGustMPH,Humidity,HourlyPrecipIn,Conditions,Clouds,dailyrainin,SoftwareType,DateUTC
2013-04-27 00:01:00,38.0,18.0,-100.00,ESE,110,1.0,4.0,43,0.00,,,0.00,,2013-04-27 07:01:00,
2013-04-27 00:11:00,38.0,18.0,-100.00,ESE,110,1.0,4.0,43,0.00,,,0.00,,2013-04-27 07:11:00,
2013-04-27 00:42:00,37.0,16.0,-100.00,ESE,107,2.0,5.0,42,0.00,,,0.00,,2013-04-27 07:42:00,
2013-04-27 00:52:00,37.0,16.0,-100.00,ESE,107,2.0,5.0,42,0.00,,,0.00,,2013-04-27 07:52:00,
2013-04-27 01:01:00,37.0,16.0,-100.00,ESE,107,2.0,5.0,42,0.00,,,0.00,,2013-04-27 08:01:00,
2013-04-27 01:11:00,37.0,16.0,-100.00,ESE,107,2.0,5.0,42,0.00,,,0.00,,2013-04-27 08:11:00,
2013-04-27 01:42:00,35.0,17.0,-100.00,East,100,3.0,6.0,47,0.00,,,0.00,,2013-04-27 08:42:00,
2013-04-27 01:52:00,35.0,17.0,-100.00,East,100,3.0,6.0,47,0.00,,,0.00,,2013-04-27 08:52:00,
2013-04-27 02:01:00,35.0,17.0,-100.00,East,100,3.0,6.0,47,0.00,,,0.00,,2013-04-27 09:01:00,
2013-04-27 02:11:00,35.0,17.0,-100.00,East,100,3.0,6.0,47,0.00,,,0.00,,2013-04-27 09:11:00,
2013-04-27 02:43:00,33.0,15.0,-100.00,ENE,77,2.0,4.0,48,0.00,,,0.00,,2013-04-27 09:43:00,
2013-04-27 02:53:00,33.0,15.0,-100.00,ENE,77,2.0,4.0,48,0.00,,,0.00,,2013-04-27 09:53:00,
2013-04-27 03:02:00,33.0,15.0,-100.00,ENE,77,2.0,4.0,48,0.00,,,0.00,,2013-04-27 10:02:00,
2013-04-27 03:12:00,33.0,15.0,-100.00,ENE,77,2.0,4.0,48,0.00,,,0.00,,2013-04-27 10:12:00,
2013-04-27 03:42:00,34.0,17.0,-100.00,SE,128,3.0,4.0,49,0.00,,,0.00,,2013-04-27 10:42:00,
2013-04-27 03:52:00,34.0,17.0,-100.00,SE,128,3.0,4.0,49,0.00,,,0.00,,2013-04-27 10:52:00,
2013-04-27 04:02:00,34.0,17.0,-100.00,SE,128,3.0,4.0,49,0.00,,,0.00,,2013-04-27 11:02:00,
2013-04-27 04:11:00,34.0,17.0,-100.00,SE,128,3.0,4.0,49,0.00,,,0.00,,2013-04-27 11:11:00,
2013-04-27 04:42:00,32.0,11.0,-100.00,WNW,297,1.0,4.0,41,0.00,,,-99.99,,2013-04-27 11:42:00,
2013-04-27 04:52:00,32.0,11.0,-100.00,WNW,297,1.0,4.0,41,0.00,,,-99.99,,2013-04-27 11:52:00,
2013-04-27 05:01:00,32.0,11.0,-100.00,WNW,297,1.0,4.0,41,0.00,,,-99.99,,2013-04-27 12:01:00,
2013-04-27 05:11:00,32.0,11.0,-100.00,WNW,297,1.0,4.0,41,0.00,,,-99.99,,2013-04-27 12:11:00,
2013-04-27 05:42:00,31.0,13.0,-100.00,West,280,2.0,5.0,47,0.00,,,-99.99,,2013-04-27 12:42:00,
2013-04-27 05:52:00,31.0,13.0,-100.00,West,280,2.0,5.0,47,0.00,,,-99.99,,2013-04-27 12:52:00,
2013-04-27 06:01:00,31.0,13.0,-100.00,West,280,2.0,5.0,47,0.00,,,-99.99,,2013-04-27 13:01:00,
2013-04-27 06:11:00,31.0,13.0,-100.00,West,280,2.0,5.0,47,0.00,,,-99.99,,2013-04-27 13:11:00,
2013-04-27 06:42:00,33.0,13.0,-100.00,SE,129,3.0,5.0,44,0.00,,,0.00,,2013-04-27 13:42:00,
2013-04-27 06:52:00,33.0,13.0,-100.00,SE,129,3.0,5.0,44,0.00,,,0.00,,2013-04-27 13:52:00,
2013-04-27 07:02:00,33.0,13.0,-100.00,SE,129,3.0,5.0,44,0.00,,,0.00,,2013-04-27 14:02:00,
2013-04-27 07:11:00,33.0,13.0,-100.00,SE,129,3.0,5.0,44,0.00,,,0.00,,2013-04-27 14:11:00,
2013-04-27 07:42:00,46.0,25.0,-100.00,SE,138,3.0,5.0,43,0.00,,,0.00,,2013-04-27 14:42:00,
2013-04-27 07:52:00,46.0,25.0,-100.00,SE,138,3.0,5.0,43,0.00,,,0.00,,2013-04-27 14:52:00,
2013-04-27 08:01:00,46.0,25.0,-100.00,SE,138,3.0,5.0,43,0.00,,,0.00,,2013-04-27 15:01:00,
2013-04-27 08:11:00,46.0,25.0,-100.00,SE,138,3.0,5.0,43,0.00,,,0.00,,2013-04-27 15:11:00,
2013-04-27 08:43:00,60.0,14.0,-100.00,NE,44,4.0,7.0,16,0.00,,,0.00,,2013-04-27 15:43:00,
2013-04-27 08:53:00,60.0,14.0,-100.00,NE,44,4.0,7.0,16,0.00,,,0.00,,2013-04-27 15:53:00,
2013-04-27 09:02:00,60.0,14.0,-100.00,NE,44,4.0,7.0,16,0.00,,,0.00,,2013-04-27 16:02:00,
2013-04-27 09:13:00,60.0,14.0,-100.00,NE,44,4.0,7.0,16,0.00,,,0.00,,2013-04-27 16:13:00,
2013-04-27 09:42:00,63.0,13.0,-100.00,North,349,8.0,15.0,14,0.00,,,0.00,,2013-04-27 16:42:00,
2013-04-27 09:53:00,63.0,13.0,-100.00,North,349,8.0,15.0,14,0.00,,,0.00,,2013-04-27 16:53:00,
2013-04-27 10:02:00,63.0,13.0,-100.00,North,349,8.0,15.0,14,0.00,,,0.00,,2013-04-27 17:02:00,
2013-04-27 10:11:00,63.0,13.0,-100.00,North,349,8.0,15.0,14,0.00,,,0.00,,2013-04-27 17:11:00,
2013-04-27 10:42:00,65.0,13.0,-100.00,NNE,19,7.0,16.0,13,0.00,,,0.00,,2013-04-27 17:42:00,
2013-04-27 10:53:00,65.0,13.0,-100.00,NNE,19,7.0,16.0,13,0.00,,,0.00,,2013-04-27 17:53:00,
2013-04-27 11:02:00,65.0,13.0,-100.00,NNE,19,7.0,16.0,13,0.00,,,0.00,,2013-04-27 18:02:00,
2013-04-27 11:11:00,65.0,13.0,-100.00,NNE,19,7.0,16.0,13,0.00,,,0.00,,2013-04-27 18:11:00,
2013-04-27 11:42:00,66.0,12.0,-100.00,NW,317,10.0,18.0,12,0.00,,,0.00,,2013-04-27 18:42:00,
2013-04-27 11:52:00,66.0,12.0,-100.00,NW,317,10.0,18.0,12,0.00,,,0.00,,2013-04-27 18:52:00,
2013-04-27 12:02:00,66.0,12.0,-100.00,NW,317,10.0,18.0,12,0.00,,,0.00,,2013-04-27 19:02:00,
2013-04-27 12:11:00,66.0,12.0,-100.00,NW,317,10.0,18.0,12,0.00,,,0.00,,2013-04-27 19:11:00,
2013-04-27 12:42:00,67.0,11.0,-100.00,WNW,303,8.0,17.0,11,0.00,,,0.00,,2013-04-27 19:42:00,
2013-04-27 12:53:00,67.0,11.0,-100.00,WNW,303,8.0,17.0,11,0.00,,,0.00,,2013-04-27 19:53:00,
2013-04-27 13:02:00,67.0,11.0,-100.00,WNW,303,8.0,17.0,11,0.00,,,0.00,,2013-04-27 20:02:00,
2013-04-27 13:11:00,67.0,11.0,-100.00,WNW,303,8.0,17.0,11,0.00,,,0.00,,2013-04-27 20:11:00,
2013-04-27 13:42:00,68.0,12.0,-100.00,NNW,348,8.0,17.0,11,0.00,,,0.00,,2013-04-27 20:42:00,
2013-04-27 13:52:00,68.0,12.0,-100.00,NNW,348,8.0,17.0,11,0.00,,,0.00,,2013-04-27 20:52:00,
2013-04-27 14:02:00,68.0,12.0,-100.00,NNW,348,8.0,17.0,11,0.00,,,0.00,,2013-04-27 21:02:00,
2013-04-27 14:11:00,68.0,12.0,-100.00,NNW,348,8.0,17.0,11,0.00,,,0.00,,2013-04-27 21:11:00,
2013-04-27 14:43:00,68.0,12.0,-100.00,WNW,288,9.0,17.0,11,0.00,,,0.00,,2013-04-27 21:43:00,
2013-04-27 14:53:00,68.0,12.0,-100.00,WNW,288,9.0,17.0,11,0.00,,,0.00,,2013-04-27 21:53:00,
2013-04-27 15:02:00,68.0,12.0,-100.00,WNW,288,9.0,17.0,11,0.00,,,0.00,,2013-04-27 22:02:00,
2013-04-27 15:12:00,68.0,12.0,-100.00,WNW,288,9.0,17.0,11,0.00,,,0.00,,2013-04-27 22:12:00,
2013-04-27 15:42:00,69.0,8.0,-100.00,NNW,336,5.0,17.0,9,0.00,,,0.00,,2013-04-27 22:42:00,
2013-04-27 15:52:00,69.0,8.0,-100.00,NNW,336,5.0,17.0,9,0.00,,,0.00,,2013-04-27 22:52:00,
2013-04-27 16:02:00,69.0,8.0,-100.00,NNW,336,5.0,17.0,9,0.00,,,0.00,,2013-04-27 23:02:00,
2013-04-27 16:11:00,69.0,8.0,-100.00,NNW,336,5.0,17.0,9,0.00,,,0.00,,2013-04-27 23:11:00,
2013-04-27 16:42:00,68.0,5.0,-100.00,WNW,286,8.0,18.0,8,0.00,,,0.00,,2013-04-27 23:42:00,
2013-04-27 16:52:00,68.0,5.0,-100.00,WNW,286,8.0,18.0,8,0.00,,,0.00,,2013-04-27 23:52:00,
2013-04-27 17:01:00,68.0,5.0,-100.00,WNW,286,8.0,18.0,8,0.00,,,0.00,,2013-04-28 00:01:00,
2013-04-27 17:11:00,68.0,5.0,-100.00,WNW,286,8.0,18.0,8,0.00,,,0.00,,2013-04-28 00:11:00,
2013-04-27 17:43:00,69.0,-1.0,-100.00,North,356,5.0,15.0,6,0.00,,,0.00,,2013-04-28 00:43:00,
2013-04-27 17:52:00,69.0,-1.0,-100.00,North,356,5.0,15.0,6,0.00,,,0.00,,2013-04-28 00:52:00,
2013-04-27 18:01:00,69.0,-1.0,-100.00,North,356,5.0,15.0,6,0.00,,,0.00,,2013-04-28 01:01:00,
2013-04-27 18:11:00,69.0,-1.0,-100.00,North,356,5.0,15.0,6,0.00,,,0.00,,2013-04-28 01:11:00,
2013-04-27 18:42:00,67.0,-2.0,-100.00,NNW,336,5.0,15.0,6,0.00,,,0.00,,2013-04-28 01:42:00,
2013-04-27 18:52:00,67.0,-2.0,-100.00,NNW,336,5.0,15.0,6,0.00,,,0.00,,2013-04-28 01:52:00,
2013-04-27 19:01:00,67.0,-2.0,-100.00,NNW,336,5.0,15.0,6,0.00,,,0.00,,2013-04-28 02:01:00,
2013-04-27 19:11:00,67.0,-2.0,-100.00,NNW,336,5.0,15.0,6,0.00,,,0.00,,2013-04-28 02:11:00,
2013-04-27 19:42:00,56.0,4.0,-100.00,SE,142,4.0,11.0,12,0.00,,,-99.99,,2013-04-28 02:42:00,
2013-04-27 19:52:00,56.0,4.0,-100.00,SE,142,4.0,11.0,12,0.00,,,-99.99,,2013-04-28 02:52:00,
2013-04-27 20:01:00,56.0,4.0,-100.00,SE,142,4.0,11.0,12,0.00,,,-99.99,,2013-04-28 03:01:00,
2013-04-27 20:11:00,56.0,4.0,-100.00,SE,142,4.0,11.0,12,0.00,,,-99.99,,2013-04-28 03:11:00,
2013-04-27 20:43:00,47.0,9.0,-100.00,SE,132,4.0,6.0,21,0.00,,,0.00,,2013-04-28 03:43:00,
2013-04-27 20:53:00,47.0,9.0,-100.00,SE,132,4.0,6.0,21,0.00,,,0.00,,2013-04-28 03:53:00,
2013-04-27 21:02:00,47.0,9.0,-100.00,SE,132,4.0,6.0,21,0.00,,,0.00,,2013-04-28 04:02:00,
2013-04-27 21:13:00,47.0,9.0,-100.00,SE,132,4.0,6.0,21,0.00,,,0.00,,2013-04-28 04:13:00,
2013-04-27 21:43:00,42.0,10.0,-100.00,SSE,164,1.0,6.0,26,0.00,,,0.00,,2013-04-28 04:43:00,
2013-04-27 21:53:00,42.0,10.0,-100.00,SSE,164,1.0,6.0,26,0.00,,,0.00,,2013-04-28 04:53:00,
2013-04-27 22:02:00,42.0,10.0,-100.00,SSE,164,1.0,6.0,26,0.00,,,0.00,,2013-04-28 05:02:00,
2013-04-27 22:12:00,42.0,10.0,-100.00,SSE,164,1.0,6.0,26,0.00,,,0.00,,2013-04-28 05:12:00,
2013-04-27 22:42:00,40.0,10.0,-100.00,ESE,112,2.0,4.0,28,0.00,,,0.00,,2013-04-28 05:42:00,
2013-04-27 22:52:00,40.0,10.0,-100.00,ESE,112,2.0,4.0,28,0.00,,,0.00,,2013-04-28 05:52:00,
2013-04-27 23:01:00,40.0,10.0,-100.00,ESE,112,2.0,4.0,28,0.00,,,0.00,,2013-04-28 06:01:00,
2013-04-27 23:12:00,40.0,10.0,-100.00,ESE,112,2.0,4.0,28,0.00,,,0.00,,2013-04-28 06:12:00,
2013-04-27 23:42:00,39.0,8.0,-100.00,ESE,123,2.0,6.0,27,0.00,,,0.00,,2013-04-28 06:42:00,
2013-04-27 23:52:00,39.0,8.0,-100.00,ESE,123,2.0,6.0,27,0.00,,,0.00,,2013-04-28 06:52:00,